Time;durP1;ratioP1;P1;durP2;ratioP2;P2;SDS_P1;SDS_P2;PMS_P1;PMS_P2;Temp;Humidity;BMP_temperature;BMP_pressure;BME280_temperature;BME280_humidity;BME280_pressure;Samples;Min_cycle;Max_cycle;Signal;HPM_P1;HPM_P2
2022/03/01 00:01:30;;;;;;;12.97;7.37;;;;;;;;;;5052781;28;20967;-45
2022/03/01 00:03:56;;;;;;;8.20;7.20;;;;;;;;;;5052713;28;20394;-46
2022/03/01 00:06:22;;;;;;;10.43;6.73;;;;;;;;;;5052689;28;20452;-47
2022/03/01 00:08:48;;;;;;;9.37;6.93;;;;;;;;;;5052481;28;20414;-46
2022/03/01 00:11:14;;;;;;;10.70;7.00;;;;;;;;;;5052537;28;20544;-46
2022/03/01 00:13:40;;;;;;;11.53;7.23;;;;;;;;;;5052547;28;20435;-46
2022/03/01 00:16:06;;;;;;;10.40;6.95;;;;;;;;;;5052436;28;20405;-45
2022/03/01 00:18:32;;;;;;;9.77;6.90;;;;;;;;;;5052613;28;20194;-46
2022/03/01 00:20:58;;;;;;;8.73;6.40;;;;;;;;;;5052166;28;20772;-45
2022/03/01 00:23:24;;;;;;;9.57;7.13;;;;;;;;;;5052300;28;20171;-46
2022/03/01 00:25:50;;;;;;;10.63;6.60;;;;;;;;;;5052472;28;20398;-46
2022/03/01 00:28:16;;;;;;;7.70;6.50;;;;;;;;;;5052338;28;20520;-47
2022/03/01 00:30:42;;;;;;;9.67;7.70;;;;;;;;;;5052198;28;20409;-47
2022/03/01 00:33:08;;;;;;;10.20;7.57;;;;;;;;;;5052297;28;20410;-45
2022/03/01 00:35:34;;;;;;;10.40;7.60;;;;;;;;;;5052244;28;20406;-45
2022/03/01 00:38:00;;;;;;;8.63;7.10;;;;;;;;;;5052422;28;20496;-45
2022/03/01 00:40:26;;;;;;;10.90;7.17;;;;;;;;;;5052026;28;20815;-45
2022/03/01 00:42:52;;;;;;;10.70;7.17;;;;;;;;;;5052367;28;20405;-46
2022/03/01 00:45:18;;;;;;;11.70;7.10;;;;;;;;;;5052079;28;20405;-46
2022/03/01 00:47:44;;;;;;;8.63;6.20;;;;;;;;;;5052055;28;20420;-46
2022/03/01 00:50:10;;;;;;;13.13;7.00;;;;;;;;;;5052143;28;20758;-48
2022/03/01 00:52:36;;;;;;;10.67;6.77;;;;;;;;;;5052081;28;20409;-45
2022/03/01 00:55:02;;;;;;;10.37;7.77;;;;;;;;;;5052238;28;20776;-45
2022/03/01 00:57:28;;;;;;;10.07;7.10;;;;;;;;;;5052018;28;20421;-45
2022/03/01 00:59:54;;;;;;;11.77;7.27;;;;;;;;;;5051584;28;20205;-45
2022/03/01 01:02:19;;;;;;;9.87;7.60;;;;;;;;;;5056854;28;20397;-45
2022/03/01 01:04:45;;;;;;;10.90;6.80;;;;;;;;;;5071743;28;20454;-45
2022/03/01 01:07:11;;;;;;;8.37;7.23;;;;;;;;;;5071395;28;20478;-45
2022/03/01 01:09:37;;;;;;;10.13;7.30;;;;;;;;;;5071658;28;20401;-48
2022/03/01 01:12:04;;;;;;;12.07;8.10;;;;;;;;;;5070972;28;20420;-46
2022/03/01 01:14:30;;;;;;;12.63;7.70;;;;;;;;;;5071536;28;20436;-46
2022/03/01 01:16:56;;;;;;;13.10;7.45;;;;;;;;;;5071509;28;20193;-46
2022/03/01 01:19:22;;;;;;;11.43;7.60;;;;;;;;;;5071138;28;20171;-48
2022/03/01 01:24:33;;;;;;;11.52;7.68;;;;;;;;;;5071970;28;20388;-46
2022/03/01 01:26:59;;;;;;;13.35;7.95;;;;;;;;;;5071354;28;20194;-47
2022/03/01 01:29:25;;;;;;;11.38;6.93;;;;;;;;;;5071001;28;20200;-46
2022/03/01 01:31:51;;;;;;;12.20;7.33;;;;;;;;;;5071386;28;20198;-46
2022/03/01 01:34:17;;;;;;;11.73;7.03;;;;;;;;;;5071013;28;20397;-46
2022/03/01 01:36:43;;;;;;;14.17;8.17;;;;;;;;;;5071103;28;20212;-46
2022/03/01 01:39:10;;;;;;;11.80;7.23;;;;;;;;;;5070967;28;20400;-46
2022/03/01 01:41:35;;;;;;;8.73;6.40;;;;;;;;;;5071148;28;20452;-46
2022/03/01 01:44:05;;;;;;;14.60;7.73;;;;;;;;;;5071071;28;20617;-47
2022/03/01 01:46:31;;;;;;;15.32;7.00;;;;;;;;;;5070977;28;20397;-47
2022/03/01 01:48:57;;;;;;;12.50;7.90;;;;;;;;;;5070606;28;20205;-46
2022/03/01 01:51:24;;;;;;;10.80;7.70;;;;;;;;;;5071033;28;20166;-46
2022/03/01 01:53:50;;;;;;;15.82;7.93;;;;;;;;;;5071691;28;20415;-46
2022/03/01 01:56:19;;;;;;;10.70;7.35;;;;;;;;;;5071546;28;20232;-47
2022/03/01 01:58:45;;;;;;;10.55;6.47;;;;;;;;;;5071861;28;20662;-46
2022/03/01 02:01:11;;;;;;;15.13;7.37;;;;;;;;;;5070438;28;20190;-46
2022/03/01 02:03:37;;;;;;;9.90;6.90;;;;;;;;;;5054879;28;20761;-46
2022/03/01 02:06:03;;;;;;;11.23;6.97;;;;;;;;;;5050782;28;20469;-46
2022/03/01 02:08:30;;;;;;;8.60;6.60;;;;;;;;;;5050762;28;20426;-46
2022/03/01 02:10:57;;;;;;;10.40;7.50;;;;;;;;;;5050967;28;20485;-46
2022/03/01 02:13:23;;;;;;;8.82;7.43;;;;;;;;;;5051134;28;20167;-46
2022/03/01 02:15:49;;;;;;;10.80;7.40;;;;;;;;;;5050473;28;20175;-46
2022/03/01 02:18:19;;;;;;;8.57;6.57;;;;;;;;;;5050766;28;20436;-46
2022/03/01 02:20:45;;;;;;;9.85;7.72;;;;;;;;;;5050516;28;20692;-47
2022/03/01 02:23:11;;;;;;;9.63;6.85;;;;;;;;;;5053206;28;20639;-46
2022/03/01 02:25:37;;;;;;;9.63;6.90;;;;;;;;;;5053835;28;20584;-46
2022/03/01 02:28:05;;;;;;;11.48;6.95;;;;;;;;;;5054923;28;20219;-46
2022/03/01 02:30:33;;;;;;;10.77;7.15;;;;;;;;;;5054403;28;20665;-46
2022/03/01 02:33:00;;;;;;;10.60;7.40;;;;;;;;;;5054619;28;20232;-47
2022/03/01 02:35:26;;;;;;;10.77;7.60;;;;;;;;;;5054644;28;20171;-46
2022/03/01 02:37:52;;;;;;;13.70;8.15;;;;;;;;;;5054785;28;20709;-46
2022/03/01 02:40:20;;;;;;;11.93;8.15;;;;;;;;;;5053024;28;20211;-46
2022/03/01 02:42:47;;;;;;;12.27;7.70;;;;;;;;;;5054391;28;20212;-47
2022/03/01 02:45:16;;;;;;;10.25;6.75;;;;;;;;;;5054279;28;20258;-46
2022/03/01 02:47:43;;;;;;;10.02;6.45;;;;;;;;;;5054074;28;20194;-46
2022/03/01 02:50:09;;;;;;;10.68;7.28;;;;;;;;;;5053970;28;20198;-47
2022/03/01 02:52:35;;;;;;;10.05;7.28;;;;;;;;;;5054311;28;20251;-47
2022/03/01 02:55:02;;;;;;;12.67;7.60;;;;;;;;;;5054230;28;20203;-46
2022/03/01 02:57:28;;;;;;;11.02;7.25;;;;;;;;;;5053890;28;20425;-46
2022/03/01 02:59:55;;;;;;;9.40;6.80;;;;;;;;;;5053942;28;20205;-46
2022/03/01 03:02:24;;;;;;;10.82;7.13;;;;;;;;;;5059316;28;20759;-46
2022/03/01 03:04:51;;;;;;;13.05;7.07;;;;;;;;;;5074148;28;20223;-47
2022/03/01 03:07:17;;;;;;;11.15;7.55;;;;;;;;;;5074104;28;20178;-47
2022/03/01 03:09:43;;;;;;;10.53;7.20;;;;;;;;;;5073800;28;20177;-47
2022/03/01 03:12:09;;;;;;;9.90;7.65;;;;;;;;;;5073281;28;21118;-46
2022/03/01 03:14:36;;;;;;;10.43;8.20;;;;;;;;;;5073209;28;20170;-47
2022/03/01 03:17:02;;;;;;;10.70;7.30;;;;;;;;;;5073751;28;20194;-46
2022/03/01 03:19:28;;;;;;;10.88;7.07;;;;;;;;;;5073713;28;20190;-47
2022/03/01 03:21:56;;;;;;;13.20;8.00;;;;;;;;;;5073745;28;20166;-46
2022/03/01 03:24:22;;;;;;;9.23;6.50;;;;;;;;;;5073883;28;20453;-45
2022/03/01 03:26:52;;;;;;;11.73;7.13;;;;;;;;;;5073668;28;20182;-46
2022/03/01 03:29:19;;;;;;;9.27;6.65;;;;;;;;;;5073561;28;20404;-46
2022/03/01 03:31:45;;;;;;;12.18;7.53;;;;;;;;;;5073609;28;20166;-46
2022/03/01 03:34:11;;;;;;;10.00;7.03;;;;;;;;;;5072782;28;20171;-46
2022/03/01 03:39:41;;;;;;;9.80;6.80;;;;;;;;;;5073502;28;20166;-46
2022/03/01 03:42:07;;;;;;;9.70;7.20;;;;;;;;;;5073411;28;20174;-47
2022/03/01 03:44:33;;;;;;;10.63;7.15;;;;;;;;;;5073532;28;20428;-47
2022/03/01 03:46:59;;;;;;;9.23;6.10;;;;;;;;;;5073723;28;20217;-46
2022/03/01 03:49:25;;;;;;;9.50;7.00;;;;;;;;;;5073506;28;20425;-46
2022/03/01 03:51:51;;;;;;;13.20;6.80;;;;;;;;;;5073634;28;20404;-46
2022/03/01 03:54:17;;;;;;;9.33;6.77;;;;;;;;;;5073606;28;20417;-46
2022/03/01 03:56:44;;;;;;;13.40;7.73;;;;;;;;;;5073300;28;20873;-45
2022/03/01 03:59:09;;;;;;;12.93;6.88;;;;;;;;;;5072989;28;20419;-46
2022/03/01 04:01:35;;;;;;;9.90;7.10;;;;;;;;;;5073427;28;20206;-46
2022/03/01 04:04:01;;;;;;;12.70;7.80;;;;;;;;;;5053790;28;20494;-47
2022/03/01 04:06:28;;;;;;;9.75;7.22;;;;;;;;;;5053004;28;20908;-45
2022/03/01 04:08:54;;;;;;;11.25;7.57;;;;;;;;;;5052847;28;20175;-46
2022/03/01 04:11:20;;;;;;;9.60;6.57;;;;;;;;;;5052826;28;20579;-46
2022/03/01 04:13:46;;;;;;;13.77;7.40;;;;;;;;;;5052688;28;20183;-46
2022/03/01 04:16:12;;;;;;;8.93;6.50;;;;;;;;;;5052868;28;20409;-46
2022/03/01 04:18:38;;;;;;;11.27;6.77;;;;;;;;;;5052744;28;20425;-46
2022/03/01 04:21:04;;;;;;;11.40;7.38;;;;;;;;;;5052672;28;20468;-46
2022/03/01 04:23:30;;;;;;;9.27;7.90;;;;;;;;;;5052542;28;20167;-46
2022/03/01 04:25:56;;;;;;;11.68;7.50;;;;;;;;;;5052503;28;20637;-46
2022/03/01 04:28:23;;;;;;;9.60;6.70;;;;;;;;;;5052434;28;20207;-46
2022/03/01 04:30:49;;;;;;;10.98;7.35;;;;;;;;;;5052390;28;20496;-46
2022/03/01 04:33:15;;;;;;;11.10;7.30;;;;;;;;;;5052476;28;20695;-46
2022/03/01 04:35:41;;;;;;;10.30;7.50;;;;;;;;;;5052507;28;20397;-46
2022/03/01 04:38:07;;;;;;;11.60;6.60;;;;;;;;;;5052471;28;20421;-46
2022/03/01 04:40:33;;;;;;;11.05;7.10;;;;;;;;;;5052163;28;20863;-46
2022/03/01 04:42:59;;;;;;;14.35;7.25;;;;;;;;;;5052186;28;20170;-46
2022/03/01 04:45:25;;;;;;;10.97;6.90;;;;;;;;;;5052280;28;20170;-46
2022/03/01 04:47:51;;;;;;;10.70;7.50;;;;;;;;;;5052208;28;20496;-46
2022/03/01 04:50:17;;;;;;;10.73;6.73;;;;;;;;;;5051970;28;20911;-46
2022/03/01 04:52:43;;;;;;;13.57;7.47;;;;;;;;;;5052240;28;20394;-46
2022/03/01 04:55:10;;;;;;;11.10;7.77;;;;;;;;;;5052331;28;20190;-46
2022/03/01 04:57:36;;;;;;;11.13;7.35;;;;;;;;;;5052054;28;20417;-46
2022/03/01 05:00:06;;;;;;;12.50;8.00;;;;;;;;;;5051854;28;20194;-46
2022/03/01 05:02:32;;;;;;;10.20;6.90;;;;;;;;;;5058933;28;20163;-46
2022/03/01 05:04:58;;;;;;;11.13;7.60;;;;;;;;;;5072098;28;20208;-46
2022/03/01 05:07:24;;;;;;;11.50;7.50;;;;;;;;;;5071892;28;20424;-45
2022/03/01 05:09:50;;;;;;;14.27;8.07;;;;;;;;;;5071744;28;20401;-46
2022/03/01 05:12:17;;;;;;;13.57;7.60;;;;;;;;;;5072032;28;20404;-46
2022/03/01 05:14:43;;;;;;;13.27;7.88;;;;;;;;;;5071928;28;20400;-46
2022/03/01 05:17:09;;;;;;;11.20;7.30;;;;;;;;;;5071742;28;20258;-46
2022/03/01 05:19:35;;;;;;;12.77;7.50;;;;;;;;;;5071650;28;20404;-46
2022/03/01 05:22:01;;;;;;;11.90;7.67;;;;;;;;;;5071952;28;20397;-46
2022/03/01 05:24:27;;;;;;;9.40;6.90;;;;;;;;;;5071741;28;20935;-46
2022/03/01 05:26:53;;;;;;;16.73;9.37;;;;;;;;;;5071844;28;20428;-46
2022/03/01 05:29:19;;;;;;;10.32;6.88;;;;;;;;;;5071483;28;20428;-47
2022/03/01 05:31:46;;;;;;;13.63;7.25;;;;;;;;;;5071592;28;20166;-46
2022/03/01 05:34:12;;;;;;;14.57;8.15;;;;;;;;;;5071580;28;20168;-46
2022/03/01 05:36:38;;;;;;;9.07;6.60;;;;;;;;;;5071436;28;20657;-46
2022/03/01 05:39:04;;;;;;;10.45;7.63;;;;;;;;;;5070019;28;20244;-46
2022/03/01 05:41:30;;;;;;;13.63;8.03;;;;;;;;;;5071345;28;20610;-46
2022/03/01 05:43:56;;;;;;;16.57;7.83;;;;;;;;;;5071505;28;20401;-46
2022/03/01 05:46:22;;;;;;;12.13;7.88;;;;;;;;;;5071423;28;20399;-46
2022/03/01 05:48:48;;;;;;;10.83;7.73;;;;;;;;;;5071168;28;20264;-47
2022/03/01 05:51:15;;;;;;;14.23;8.07;;;;;;;;;;5071153;28;20408;-46
2022/03/01 05:53:41;;;;;;;15.32;7.95;;;;;;;;;;5071184;28;20450;-46
2022/03/01 05:56:07;;;;;;;11.75;7.40;;;;;;;;;;5071226;28;20626;-46
2022/03/01 05:58:33;;;;;;;15.13;8.73;;;;;;;;;;5070769;28;20268;-46
2022/03/01 06:00:59;;;;;;;11.10;7.13;;;;;;;;;;5070894;28;20549;-46
2022/03/01 06:03:25;;;;;;;14.13;8.27;;;;;;;;;;5056720;28;20881;-45
2022/03/01 06:05:51;;;;;;;11.18;7.32;;;;;;;;;;5051020;28;20285;-46
2022/03/01 06:08:17;;;;;;;11.97;7.67;;;;;;;;;;5050956;28;20665;-46
2022/03/01 06:10:43;;;;;;;12.73;8.27;;;;;;;;;;5050870;28;20401;-47
2022/03/01 06:13:09;;;;;;;15.00;8.27;;;;;;;;;;5051019;28;20408;-46
2022/03/01 06:15:35;;;;;;;11.60;7.22;;;;;;;;;;5051389;28;20822;-46
2022/03/01 06:18:01;;;;;;;11.93;8.10;;;;;;;;;;5051197;28;20187;-46
2022/03/01 06:20:27;;;;;;;13.68;7.38;;;;;;;;;;5050807;28;20820;-46
2022/03/01 06:22:53;;;;;;;13.85;8.15;;;;;;;;;;5050939;28;20539;-47
2022/03/01 06:25:19;;;;;;;12.30;7.45;;;;;;;;;;5051167;28;20179;-46
2022/03/01 06:27:46;;;;;;;16.10;8.70;;;;;;;;;;5050977;28;20190;-47
2022/03/01 06:30:12;;;;;;;13.68;7.70;;;;;;;;;;5051505;28;20796;-46
2022/03/01 06:32:38;;;;;;;11.75;8.00;;;;;;;;;;5050808;28;20171;-46
2022/03/01 06:35:05;;;;;;;15.30;8.80;;;;;;;;;;5050870;28;20634;-46
2022/03/01 06:37:31;;;;;;;16.02;8.85;;;;;;;;;;5050837;28;20198;-46
2022/03/01 06:39:57;;;;;;;14.48;7.63;;;;;;;;;;5050894;28;20206;-46
2022/03/01 06:42:23;;;;;;;16.87;8.57;;;;;;;;;;5051200;28;20232;-47
2022/03/01 06:44:49;;;;;;;12.70;8.40;;;;;;;;;;5051096;28;20401;-46
2022/03/01 06:47:15;;;;;;;13.83;8.77;;;;;;;;;;5051236;28;20496;-46
2022/03/01 06:49:41;;;;;;;14.37;7.70;;;;;;;;;;5050600;28;20424;-46
2022/03/01 06:52:07;;;;;;;14.57;8.40;;;;;;;;;;5050734;28;20397;-46
2022/03/01 06:54:33;;;;;;;14.10;8.38;;;;;;;;;;5050601;28;20403;-46
2022/03/01 06:56:59;;;;;;;13.53;7.83;;;;;;;;;;5050457;28;20183;-46
2022/03/01 06:59:26;;;;;;;15.30;9.33;;;;;;;;;;5050731;28;20955;-46
2022/03/01 07:01:52;;;;;;;13.90;7.78;;;;;;;;;;5052385;28;20510;-46
2022/03/01 07:04:18;;;;;;;14.98;8.20;;;;;;;;;;5071394;28;20163;-46
2022/03/01 07:06:44;;;;;;;9.63;7.32;;;;;;;;;;5071084;28;20220;-46
2022/03/01 07:09:10;;;;;;;17.33;8.50;;;;;;;;;;5071780;28;20171;-46
2022/03/01 07:11:36;;;;;;;16.20;7.77;;;;;;;;;;5074920;28;20462;-46
2022/03/01 07:14:03;;;;;;;13.63;8.02;;;;;;;;;;5074638;28;20464;-46
2022/03/01 07:16:29;;;;;;;15.75;8.13;;;;;;;;;;5074522;28;20170;-46
2022/03/01 07:18:55;;;;;;;15.65;8.57;;;;;;;;;;5074385;28;20249;-46
2022/03/01 07:21:21;;;;;;;14.30;7.70;;;;;;;;;;5074699;28;20233;-46
2022/03/01 07:23:47;;;;;;;16.08;8.90;;;;;;;;;;5074570;28;20173;-46
2022/03/01 07:26:13;;;;;;;11.68;8.02;;;;;;;;;;5074638;28;20166;-46
2022/03/01 07:28:39;;;;;;;14.50;8.20;;;;;;;;;;5074447;28;20211;-46
2022/03/01 07:31:05;;;;;;;12.50;8.20;;;;;;;;;;5074575;28;20526;-46
2022/03/01 07:33:31;;;;;;;13.03;8.13;;;;;;;;;;5074638;28;20261;-46
2022/03/01 07:35:57;;;;;;;13.43;8.10;;;;;;;;;;5074616;28;20400;-46
2022/03/01 07:38:23;;;;;;;14.77;8.20;;;;;;;;;;5074504;28;20977;-46
2022/03/01 07:40:49;;;;;;;12.27;7.38;;;;;;;;;;5074025;28;20476;-47
2022/03/01 07:43:15;;;;;;;15.07;8.70;;;;;;;;;;5073010;28;20202;-46
2022/03/01 07:45:41;;;;;;;14.40;8.03;;;;;;;;;;5074339;28;20446;-46
2022/03/01 07:48:07;;;;;;;12.23;8.15;;;;;;;;;;5058590;28;20835;-46
2022/03/01 07:50:34;;;;;;;14.18;8.18;;;;;;;;;;5042940;28;20184;-46
2022/03/01 07:53:01;;;;;;;10.82;8.10;;;;;;;;;;5033494;28;20194;-46
2022/03/01 07:55:29;;;;;;;16.80;8.27;;;;;;;;;;5033591;28;20168;-46
2022/03/01 07:57:55;;;;;;;14.43;8.48;;;;;;;;;;5032656;28;20187;-47
2022/03/01 08:00:21;;;;;;;13.70;8.63;;;;;;;;;;5033822;28;20202;-47
2022/03/01 08:02:47;;;;;;;12.45;8.10;;;;;;;;;;5051662;28;20412;-46
2022/03/01 08:05:13;;;;;;;13.43;8.10;;;;;;;;;;5073953;28;20171;-46
2022/03/01 08:07:39;;;;;;;17.20;7.50;;;;;;;;;;5072253;28;20773;-48
2022/03/01 08:10:05;;;;;;;20.20;8.20;;;;;;;;;;5073135;28;20497;-46
2022/03/01 08:12:31;;;;;;;12.73;7.10;;;;;;;;;;5072926;28;20416;-46
2022/03/01 08:14:57;;;;;;;11.17;8.23;;;;;;;;;;5073146;28;20405;-46
2022/03/01 08:17:23;;;;;;;10.97;6.90;;;;;;;;;;5072962;28;20961;-46
2022/03/01 08:19:49;;;;;;;13.30;8.33;;;;;;;;;;5072148;28;20505;-47
2022/03/01 08:22:16;;;;;;;13.43;7.20;;;;;;;;;;5072685;28;20399;-46
2022/03/01 08:24:42;;;;;;;11.53;7.53;;;;;;;;;;5072763;28;20398;-46
2022/03/01 08:27:08;;;;;;;12.27;8.00;;;;;;;;;;5072843;28;20450;-46
2022/03/01 08:29:34;;;;;;;11.43;8.40;;;;;;;;;;5072569;28;20399;-47
2022/03/01 08:32:01;;;;;;;12.80;7.37;;;;;;;;;;5072633;28;20922;-46
2022/03/01 08:34:27;;;;;;;12.17;6.47;;;;;;;;;;5072596;28;20404;-47
2022/03/01 08:36:53;;;;;;;11.20;7.97;;;;;;;;;;5072575;28;20426;-47
2022/03/01 08:39:19;;;;;;;13.17;7.57;;;;;;;;;;5072292;28;20411;-46
2022/03/01 08:41:44;;;;;;;11.53;7.80;;;;;;;;;;5072327;28;20548;-46
2022/03/01 08:44:11;;;;;;;11.20;7.07;;;;;;;;;;5072713;28;20487;-46
2022/03/01 08:46:37;;;;;;;11.43;7.23;;;;;;;;;;5072789;28;20404;-47
2022/03/01 08:49:03;;;;;;;11.70;7.23;;;;;;;;;;5071846;28;20914;-47
2022/03/01 08:51:30;;;;;;;15.07;8.17;;;;;;;;;;5072611;28;20450;-47
2022/03/01 08:53:57;;;;;;;13.50;7.50;;;;;;;;;;5072223;28;20427;-46
2022/03/01 08:56:23;;;;;;;18.80;7.70;;;;;;;;;;5072198;28;20958;-47
2022/03/01 08:58:49;;;;;;;11.83;7.23;;;;;;;;;;5071961;28;20428;-46
2022/03/01 09:01:15;;;;;;;10.60;7.43;;;;;;;;;;5071856;28;20974;-46
2022/03/01 09:03:42;;;;;;;15.60;7.07;;;;;;;;;;5055161;28;20460;-47
2022/03/01 09:06:08;;;;;;;10.30;6.67;;;;;;;;;;5051922;28;20413;-47
2022/03/01 09:08:35;;;;;;;13.27;7.47;;;;;;;;;;5051751;28;20417;-47
2022/03/01 09:11:01;;;;;;;11.80;7.60;;;;;;;;;;5051591;28;20402;-46
2022/03/01 09:13:28;;;;;;;11.60;7.37;;;;;;;;;;5051755;28;20885;-47
2022/03/01 09:15:54;;;;;;;11.60;7.53;;;;;;;;;;5051715;28;20398;-46
2022/03/01 09:18:21;;;;;;;11.70;7.40;;;;;;;;;;5051339;28;20426;-46
2022/03/01 09:20:47;;;;;;;10.30;6.80;;;;;;;;;;5051494;28;20451;-46
2022/03/01 09:23:13;;;;;;;9.77;7.77;;;;;;;;;;5051699;28;20452;-46
2022/03/01 09:25:39;;;;;;;11.63;7.20;;;;;;;;;;5051583;28;20402;-46
2022/03/01 09:28:06;;;;;;;11.77;7.07;;;;;;;;;;5051696;28;20473;-48
2022/03/01 09:30:32;;;;;;;15.53;7.27;;;;;;;;;;5051881;28;20484;-47
2022/03/01 09:32:58;;;;;;;11.63;7.00;;;;;;;;;;5050619;28;20406;-47
2022/03/01 09:35:24;;;;;;;13.97;7.20;;;;;;;;;;5051232;28;20833;-47
2022/03/01 09:37:50;;;;;;;11.23;7.30;;;;;;;;;;5034925;28;20447;-46
2022/03/01 09:40:16;;;;;;;11.87;7.70;;;;;;;;;;5031091;28;20477;-47
2022/03/01 09:42:42;;;;;;;9.30;6.40;;;;;;;;;;5044797;28;20438;-47
2022/03/01 09:45:12;;;;;;;11.17;6.90;;;;;;;;;;5050643;28;20816;-46
2022/03/01 09:47:38;;;;;;;8.53;6.80;;;;;;;;;;5050349;28;21113;-47
2022/03/01 09:50:05;;;;;;;11.57;7.17;;;;;;;;;;5051054;28;20429;-46
2022/03/01 09:52:32;;;;;;;12.03;7.47;;;;;;;;;;5051077;28;20437;-46
2022/03/01 09:54:58;;;;;;;9.30;6.43;;;;;;;;;;5051119;28;20921;-46
2022/03/01 09:57:24;;;;;;;15.37;7.90;;;;;;;;;;5051466;28;20427;-47
2022/03/01 09:59:50;;;;;;;15.17;7.97;;;;;;;;;;5050951;28;20397;-46
2022/03/01 10:02:16;;;;;;;9.63;6.97;;;;;;;;;;5049720;28;20413;-47
2022/03/01 10:04:52;;;;;;;13.20;7.57;;;;;;;;;;5050898;28;20849;-47
2022/03/01 10:07:25;;;;;;;12.50;7.60;;;;;;;;;;5050730;28;20417;-47
2022/03/01 10:09:51;;;;;;;11.87;6.30;;;;;;;;;;5050784;28;20414;-47
2022/03/01 10:12:24;;;;;;;12.13;7.43;;;;;;;;;;5050875;28;20445;-47
2022/03/01 10:15:02;;;;;;;11.90;7.40;;;;;;;;;;5050849;28;20488;-47
2022/03/01 10:17:39;;;;;;;12.40;8.33;;;;;;;;;;5050731;28;20453;-47
2022/03/01 10:20:10;;;;;;;12.30;6.70;;;;;;;;;;5050564;28;20452;-46
2022/03/01 10:22:45;;;;;;;13.27;6.83;;;;;;;;;;5050702;28;20411;-46
2022/03/01 10:25:14;;;;;;;9.50;6.73;;;;;;;;;;5050909;28;20509;-47
2022/03/01 10:27:40;;;;;;;12.53;7.50;;;;;;;;;;5050804;28;20428;-47
2022/03/01 10:30:07;;;;;;;10.40;6.93;;;;;;;;;;5050438;28;20458;-47
2022/03/01 10:32:33;;;;;;;10.93;8.20;;;;;;;;;;5050600;28;20399;-47
2022/03/01 10:35:04;;;;;;;11.00;7.30;;;;;;;;;;5050670;28;20409;-47
2022/03/01 10:37:31;;;;;;;14.73;9.70;;;;;;;;;;5050527;28;20988;-47
2022/03/01 10:40:14;;;;;;;12.30;8.20;;;;;;;;;;5050352;28;20410;-47
2022/03/01 10:42:40;;;;;;;16.73;8.33;;;;;;;;;;5050489;28;20432;-47
2022/03/01 10:45:08;;;;;;;12.93;7.93;;;;;;;;;;5055619;28;20408;-47
2022/03/01 10:47:35;;;;;;;12.77;7.80;;;;;;;;;;5054297;28;20430;-46
2022/03/01 10:50:02;;;;;;;12.37;8.03;;;;;;;;;;5052236;28;20440;-46
2022/03/01 10:52:35;;;;;;;12.10;7.60;;;;;;;;;;5045279;28;20784;-47
2022/03/01 10:55:02;;;;;;;11.33;7.00;;;;;;;;;;5034299;28;20399;-46
2022/03/01 10:57:28;;;;;;;12.47;7.60;;;;;;;;;;5048145;28;20434;-47
2022/03/01 10:59:54;;;;;;;12.20;8.23;;;;;;;;;;5047654;28;21034;-46
2022/03/01 11:02:20;;;;;;;11.80;7.13;;;;;;;;;;5056090;28;20482;-46
2022/03/01 11:04:46;;;;;;;12.53;7.33;;;;;;;;;;5074376;28;20792;-45
2022/03/01 11:07:13;;;;;;;12.57;7.17;;;;;;;;;;5061897;28;20520;-45
2022/03/01 11:09:39;;;;;;;12.00;8.00;;;;;;;;;;5053838;28;20409;-45
2022/03/01 11:12:06;;;;;;;10.33;7.40;;;;;;;;;;5053295;28;20419;-46
2022/03/01 11:14:42;;;;;;;12.47;7.43;;;;;;;;;;5043748;28;20427;-46
2022/03/01 11:17:23;;;;;;;12.13;8.33;;;;;;;;;;5041410;28;20444;-50
2022/03/01 11:20:07;;;;;;;11.10;7.40;;;;;;;;;;5053619;28;20405;-46
2022/03/01 11:22:43;;;;;;;10.20;7.40;;;;;;;;;;5042399;28;20410;-46
2022/03/01 11:25:19;;;;;;;10.80;7.70;;;;;;;;;;5042149;28;20408;-46
2022/03/01 11:27:47;;;;;;;10.77;7.27;;;;;;;;;;5040759;28;20471;-48
2022/03/01 11:30:14;;;;;;;11.53;8.13;;;;;;;;;;5043058;28;20409;-47
2022/03/01 11:32:44;;;;;;;10.10;6.90;;;;;;;;;;5049794;28;20429;-46
2022/03/01 11:35:24;;;;;;;10.63;7.50;;;;;;;;;;5045315;28;20425;-46
2022/03/01 11:38:05;;;;;;;11.30;8.00;;;;;;;;;;5051757;28;20450;-46
2022/03/01 11:40:51;;;;;;;15.00;7.27;;;;;;;;;;5037817;28;20510;-45
2022/03/01 11:43:20;;;;;;;10.03;7.17;;;;;;;;;;5058065;28;20431;-46
2022/03/01 11:45:47;;;;;;;11.17;7.00;;;;;;;;;;5034869;28;20426;-47
2022/03/01 11:48:14;;;;;;;15.93;8.20;;;;;;;;;;5040339;28;20450;-46
2022/03/01 11:50:45;;;;;;;10.50;7.37;;;;;;;;;;5051411;28;21087;-46
2022/03/01 11:53:12;;;;;;;10.57;6.67;;;;;;;;;;5053333;28;20401;-46
2022/03/01 11:55:44;;;;;;;14.87;7.13;;;;;;;;;;5052323;28;20420;-46
2022/03/01 11:58:11;;;;;;;12.20;7.10;;;;;;;;;;5049586;28;20434;-46
2022/03/01 12:00:39;;;;;;;12.27;7.10;;;;;;;;;;5032873;28;20457;-45
2022/03/01 12:03:06;;;;;;;12.17;7.70;;;;;;;;;;5055873;28;20501;-46
2022/03/01 12:05:33;;;;;;;10.03;7.30;;;;;;;;;;5072970;28;20389;-49
2022/03/01 12:08:05;;;;;;;11.20;7.27;;;;;;;;;;5072713;28;20419;-47
2022/03/01 12:10:32;;;;;;;13.37;7.83;;;;;;;;;;5072756;28;20502;-46
2022/03/01 12:12:58;;;;;;;9.50;7.43;;;;;;;;;;5072867;28;20466;-46
2022/03/01 12:15:28;;;;;;;11.60;8.87;;;;;;;;;;5073379;28;20404;-46
2022/03/01 12:17:54;;;;;;;12.80;8.50;;;;;;;;;;5072721;28;20420;-46
2022/03/01 12:20:21;;;;;;;12.93;7.67;;;;;;;;;;5072533;28;20452;-47
2022/03/01 12:22:57;;;;;;;13.63;8.10;;;;;;;;;;5053292;28;20524;-46
2022/03/01 12:25:23;;;;;;;12.43;7.90;;;;;;;;;;5041856;28;20451;-46
2022/03/01 12:27:50;;;;;;;12.73;7.90;;;;;;;;;;5052483;28;20629;-47
2022/03/01 12:30:18;;;;;;;10.70;8.80;;;;;;;;;;5052392;28;20492;-47
2022/03/01 12:32:49;;;;;;;14.07;8.23;;;;;;;;;;5045412;28;20388;-46
2022/03/01 12:35:15;;;;;;;18.40;8.50;;;;;;;;;;5032286;28;20407;-47
2022/03/01 12:37:41;;;;;;;14.80;8.53;;;;;;;;;;5032388;28;20906;-46
2022/03/01 12:40:08;;;;;;;10.20;6.93;;;;;;;;;;5031906;28;20449;-47
2022/03/01 12:42:35;;;;;;;13.37;8.23;;;;;;;;;;5032381;28;20406;-47
2022/03/01 12:45:01;;;;;;;10.70;7.70;;;;;;;;;;5032207;28;20412;-46
2022/03/01 12:47:27;;;;;;;13.23;6.80;;;;;;;;;;5032060;28;20446;-46
2022/03/01 12:49:54;;;;;;;11.67;7.67;;;;;;;;;;5031670;28;20752;-47
2022/03/01 12:52:21;;;;;;;11.10;7.57;;;;;;;;;;5031994;28;20429;-46
2022/03/01 12:54:48;;;;;;;10.60;7.60;;;;;;;;;;5031907;28;20405;-47
2022/03/01 12:57:14;;;;;;;10.43;7.10;;;;;;;;;;5037523;28;20457;-47
2022/03/01 12:59:40;;;;;;;9.63;7.13;;;;;;;;;;5031513;28;20930;-47
2022/03/01 13:02:07;;;;;;;12.43;7.37;;;;;;;;;;5045998;28;20828;-47
2022/03/01 13:04:37;;;;;;;10.87;7.33;;;;;;;;;;5057963;28;20421;-46
2022/03/01 13:07:03;;;;;;;13.60;9.23;;;;;;;;;;5050275;28;20478;-47
2022/03/01 13:09:30;;;;;;;9.63;7.47;;;;;;;;;;5051380;28;20807;-47
2022/03/01 13:11:56;;;;;;;11.20;7.20;;;;;;;;;;5051497;28;20584;-47
2022/03/01 13:14:22;;;;;;;12.50;8.40;;;;;;;;;;5051465;28;20416;-47
2022/03/01 13:16:52;;;;;;;10.87;7.50;;;;;;;;;;5051348;28;20432;-47
2022/03/01 13:19:20;;;;;;;9.10;7.43;;;;;;;;;;5051324;28;20899;-46
2022/03/01 13:21:49;;;;;;;11.50;7.30;;;;;;;;;;5051540;28;20459;-47
2022/03/01 13:24:34;;;;;;;12.57;7.50;;;;;;;;;;5051504;28;20433;-47
2022/03/01 13:27:01;;;;;;;13.27;8.40;;;;;;;;;;5051254;28;20429;-46
2022/03/01 13:29:34;;;;;;;14.37;8.00;;;;;;;;;;5051302;28;20406;-47
2022/03/01 13:32:06;;;;;;;10.60;7.10;;;;;;;;;;5051412;28;20903;-47
2022/03/01 13:34:32;;;;;;;11.73;7.50;;;;;;;;;;5051512;28;20434;-47
2022/03/01 13:37:00;;;;;;;11.90;7.60;;;;;;;;;;5051209;28;20432;-46
2022/03/01 13:39:26;;;;;;;10.17;7.23;;;;;;;;;;5050958;28;20918;-47
2022/03/01 13:41:56;;;;;;;15.70;7.80;;;;;;;;;;5050955;28;20985;-46
2022/03/01 13:44:22;;;;;;;10.50;8.50;;;;;;;;;;5051153;28;20407;-46
2022/03/01 13:46:56;;;;;;;11.70;8.13;;;;;;;;;;5051047;28;20440;-46
2022/03/01 13:49:31;;;;;;;12.20;7.73;;;;;;;;;;5050748;28;20414;-47
2022/03/01 13:52:09;;;;;;;11.10;7.53;;;;;;;;;;5030940;28;20407;-47
2022/03/01 13:54:35;;;;;;;9.90;6.80;;;;;;;;;;5031099;28;20406;-47
2022/03/01 13:57:01;;;;;;;14.27;7.33;;;;;;;;;;5030864;28;20431;-47
2022/03/01 13:59:27;;;;;;;12.47;7.63;;;;;;;;;;5031157;28;20403;-47
2022/03/01 14:01:54;;;;;;;10.30;7.90;;;;;;;;;;5036362;28;20464;-47
2022/03/01 14:04:23;;;;;;;10.93;7.00;;;;;;;;;;5052748;28;20424;-46
2022/03/01 14:06:50;;;;;;;12.50;7.70;;;;;;;;;;5038410;28;20435;-46
2022/03/01 14:09:16;;;;;;;10.00;6.40;;;;;;;;;;5030770;28;20498;-46
2022/03/01 14:11:51;;;;;;;14.73;8.30;;;;;;;;;;5037911;28;20474;-47
2022/03/01 14:14:17;;;;;;;15.40;7.50;;;;;;;;;;5031297;28;20624;-47
2022/03/01 14:16:44;;;;;;;10.30;7.10;;;;;;;;;;5030672;28;20423;-47
2022/03/01 14:19:10;;;;;;;9.70;7.53;;;;;;;;;;5040879;28;20458;-47
2022/03/01 14:21:37;;;;;;;10.93;6.97;;;;;;;;;;5038457;28;20493;-47
2022/03/01 14:24:03;;;;;;;9.93;7.30;;;;;;;;;;5046815;28;20426;-47
2022/03/01 14:26:29;;;;;;;12.83;8.57;;;;;;;;;;5043011;28;20470;-47
2022/03/01 14:29:03;;;;;;;11.23;8.03;;;;;;;;;;5035728;28;20838;-46
2022/03/01 14:31:29;;;;;;;12.17;7.80;;;;;;;;;;5044447;28;20423;-46
2022/03/01 14:33:56;;;;;;;14.30;8.00;;;;;;;;;;5034714;28;20418;-47
2022/03/01 14:36:22;;;;;;;13.23;8.50;;;;;;;;;;5047804;28;20407;-47